createdAt,value
2018-12-05T00:00:10.502Z,5.35
2018-12-05T00:03:01.906Z,5.32
2018-12-05T00:05:34.568Z,5.28
2018-12-05T00:08:08.318Z,5.26
2018-12-05T00:10:41.734Z,5.24
2018-12-05T00:13:14.578Z,5.20
2018-12-05T00:15:52.911Z,5.22
2018-12-05T00:18:25.605Z,5.22
2018-12-05T00:20:58.733Z,5.19
2018-12-05T00:42:13.417Z,5.01
2018-12-05T00:44:46.098Z,5.00
2018-12-05T00:47:17.843Z,4.98
2018-12-05T00:49:49.583Z,4.93
2018-12-05T00:52:22.794Z,4.84
2018-12-05T00:54:55.856Z,4.77
2018-12-05T00:57:26.903Z,4.81
2018-12-05T01:00:01.054Z,4.75
2018-12-05T01:02:38.761Z,4.68
2018-12-05T01:05:11.007Z,4.66
2018-12-05T01:07:43.967Z,4.62
2018-12-05T01:10:19.099Z,4.64
2018-12-05T01:13:06.437Z,4.65
2018-12-05T01:15:39.922Z,4.65
2018-12-05T01:18:10.867Z,4.65
2018-12-05T01:20:44.508Z,4.68
2018-12-05T01:23:18.326Z,4.68
2018-12-05T01:25:50.862Z,4.67
2018-12-05T01:28:21.877Z,4.67
2018-12-05T01:30:53.785Z,4.67
2018-12-05T01:33:25.960Z,4.70
2018-12-05T01:35:56.959Z,4.01
2018-12-05T01:38:28.530Z,4.73
2018-12-05T01:41:01.231Z,4.76
2018-12-05T01:43:38.245Z,4.65
2018-12-05T01:46:08.935Z,4.78
2018-12-05T01:48:42.151Z,4.77
2018-12-05T01:51:14.093Z,4.66
2018-12-05T01:53:44.767Z,4.58
2018-12-05T01:56:15.824Z,4.60
2018-12-05T01:58:46.419Z,4.60
2018-12-05T02:01:17.027Z,4.57
2018-12-05T02:03:47.651Z,4.52
2018-12-05T02:06:18.287Z,4.47
2018-12-05T02:08:51.175Z,4.46
2018-12-05T02:11:22.011Z,4.43
2018-12-05T02:13:55.189Z,4.44
2018-12-05T02:16:25.998Z,4.46
2018-12-05T02:18:59.203Z,4.31
2018-12-05T02:21:29.892Z,3.41
2018-12-05T02:24:01.547Z,4.42
2018-12-05T02:26:34.308Z,4.44
2018-12-05T02:29:05.134Z,4.47
2018-12-05T02:31:36.158Z,4.39
2018-12-05T02:34:09.166Z,4.46
2018-12-05T02:36:39.927Z,4.41
2018-12-05T02:39:13.722Z,4.34
2018-12-05T02:41:47.303Z,4.36
2018-12-05T02:44:21.092Z,4.38
2018-12-05T02:46:52.282Z,4.33
2018-12-05T02:49:25.607Z,4.20
2018-12-05T02:51:58.993Z,4.19
2018-12-05T02:54:29.867Z,3.37
2018-12-05T02:57:01.592Z,4.20
2018-12-05T02:59:34.352Z,4.17
2018-12-05T03:02:06.235Z,4.14
2018-12-05T03:04:39.265Z,4.19
2018-12-05T03:07:10.384Z,4.23
2018-12-05T03:09:43.292Z,4.19
2018-12-05T03:12:14.355Z,4.25
2018-12-05T03:14:47.413Z,4.30
2018-12-05T03:17:18.852Z,4.27
2018-12-05T03:19:51.567Z,4.31
2018-12-05T03:22:22.505Z,4.38
2018-12-05T03:24:53.039Z,4.32
2018-12-05T03:27:23.656Z,4.25
2018-12-05T03:29:54.285Z,4.25
2018-12-05T03:32:24.907Z,4.19
2018-12-05T03:34:55.474Z,4.10
2018-12-05T03:37:26.173Z,4.02
2018-12-05T03:39:56.767Z,4.00
2018-12-05T03:42:27.359Z,4.01
2018-12-05T03:44:58.270Z,4.04
2018-12-05T03:47:29.060Z,4.10
2018-12-05T03:50:03.054Z,4.11
2018-12-05T03:52:36.859Z,4.10
2018-12-05T03:55:09.596Z,4.05
2018-12-05T03:57:40.586Z,4.11
2018-12-05T04:00:12.089Z,4.10
2018-12-05T04:02:56.724Z,3.98
2018-12-05T04:05:36.991Z,3.95
2018-12-05T04:08:07.679Z,3.94
2018-12-05T04:10:39.500Z,3.98
2018-12-05T04:13:12.771Z,3.93
2018-12-05T04:15:46.357Z,4.02
2018-12-05T04:18:19.879Z,3.98
2018-12-05T04:20:50.823Z,3.92
2018-12-05T04:23:25.364Z,3.93
2018-12-05T04:25:57.955Z,4.00
2018-12-05T04:28:30.091Z,3.96
2018-12-05T04:31:01.943Z,3.89
2018-12-05T04:33:33.759Z,2.94
2018-12-05T04:36:05.775Z,3.86
2018-12-05T04:38:36.615Z,3.74
2018-12-05T04:41:09.718Z,3.80
2018-12-05T04:43:43.101Z,3.82
2018-12-05T04:46:13.752Z,3.81
2018-12-05T04:48:44.783Z,3.89
2018-12-05T04:51:18.955Z,4.13
2018-12-05T04:53:51.811Z,4.43
2018-12-05T04:56:22.768Z,4.27
2018-12-05T04:58:54.457Z,4.30
2018-12-05T05:01:26.967Z,4.46
2018-12-05T05:03:57.938Z,4.70
2018-12-05T05:06:28.857Z,5.01
2018-12-05T05:09:07.566Z,5.08
2018-12-05T05:11:39.970Z,5.14
2018-12-05T05:14:13.200Z,4.99
2018-12-05T05:16:43.947Z,5.15
2018-12-05T05:19:15.080Z,5.70
2018-12-05T05:21:45.942Z,6.04
2018-12-05T05:24:18.939Z,5.74
2018-12-05T05:26:50.024Z,6.03
2018-12-05T05:29:20.979Z,5.50
2018-12-05T05:31:51.780Z,5.46
2018-12-05T05:34:22.401Z,5.13
2018-12-05T05:36:55.328Z,4.21
2018-12-05T05:39:25.901Z,3.90
2018-12-05T05:41:57.198Z,3.69
2018-12-05T05:44:30.155Z,3.97
2018-12-05T05:47:00.932Z,3.89
2018-12-05T05:49:31.493Z,3.42
2018-12-05T05:52:02.132Z,3.16
2018-12-05T05:54:32.968Z,3.13
2018-12-05T05:57:03.589Z,2.88
2018-12-05T05:59:34.138Z,2.96
2018-12-05T06:02:05.311Z,3.10
2018-12-05T06:04:35.844Z,3.06
2018-12-05T06:07:06.134Z,3.09
2018-12-05T06:09:37.107Z,3.14
2018-12-05T06:12:07.851Z,3.00
2018-12-05T06:14:38.682Z,3.10
2018-12-05T06:17:09.220Z,3.16
2018-12-05T06:19:41.239Z,3.58
2018-12-05T06:22:13.213Z,3.72
2018-12-05T06:24:44.230Z,4.54
2018-12-05T06:27:15.347Z,5.16
2018-12-05T06:29:46.162Z,4.47
2018-12-05T06:32:19.335Z,4.49
2018-12-05T06:34:52.210Z,4.50
2018-12-05T06:37:23.430Z,4.98
2018-12-05T06:39:57.600Z,5.54
2018-12-05T06:42:30.318Z,6.03
2018-12-05T06:45:01.219Z,5.12
2018-12-05T06:47:32.179Z,4.63
2018-12-05T06:50:05.496Z,4.25
2018-12-05T06:52:38.389Z,4.29
2018-12-05T06:55:10.545Z,4.16
2018-12-05T06:57:43.621Z,4.26
2018-12-05T07:00:17.408Z,4.09
2018-12-05T07:03:02.467Z,4.00
2018-12-05T07:05:37.724Z,4.02
2018-12-05T07:08:15.288Z,3.94
2018-12-05T07:10:48.459Z,3.82
2018-12-05T07:13:19.601Z,3.78
2018-12-05T07:15:51.438Z,3.73
2018-12-05T07:18:23.512Z,3.77
2018-12-05T07:20:54.539Z,3.79
2018-12-05T07:23:25.503Z,3.82
2018-12-05T07:25:56.278Z,3.93
2018-12-05T07:28:27.188Z,4.03
2018-12-05T07:31:04.123Z,4.07
2018-12-05T07:33:39.260Z,4.23
2018-12-05T07:36:14.625Z,4.32
2018-12-05T07:38:45.611Z,4.45
2018-12-05T07:41:16.264Z,4.70
2018-12-05T07:43:46.867Z,4.75
2018-12-05T07:46:17.511Z,5.19
2018-12-05T07:48:51.045Z,5.66
2018-12-05T07:51:21.593Z,5.73
2018-12-05T07:53:52.149Z,5.73
2018-12-05T07:56:22.870Z,5.68
2018-12-05T07:58:55.575Z,5.56
2018-12-05T08:01:26.580Z,5.30
2018-12-05T08:03:57.981Z,5.26
2018-12-05T08:06:30.385Z,5.36
2018-12-05T08:09:01.643Z,5.26
2018-12-05T08:11:33.758Z,5.21
2018-12-05T08:14:06.706Z,5.30
2018-12-05T08:16:39.619Z,5.35
2018-12-05T08:19:10.714Z,5.43
2018-12-05T08:21:41.645Z,5.55
2018-12-05T08:24:12.259Z,5.64
2018-12-05T08:26:43.102Z,5.74
2018-12-05T08:29:13.762Z,5.88
2018-12-05T08:31:44.645Z,5.72
2018-12-05T08:34:15.590Z,5.65
2018-12-05T08:36:46.391Z,5.76
2018-12-05T08:39:17.082Z,5.70
2018-12-05T08:41:48.047Z,5.85
2018-12-05T08:44:18.777Z,5.79
2018-12-05T08:46:49.313Z,5.69
2018-12-05T08:49:19.657Z,5.74
2018-12-05T08:51:50.753Z,5.96
2018-12-05T08:54:21.521Z,6.02
2018-12-05T08:56:55.426Z,5.97
2018-12-05T08:59:27.948Z,5.99
2018-12-05T09:01:59.078Z,5.97
2018-12-05T09:04:30.638Z,5.90
2018-12-05T09:07:03.139Z,5.91
2018-12-05T09:09:33.904Z,5.98
2018-12-05T09:12:06.939Z,6.10
2018-12-05T09:14:39.963Z,6.26
2018-12-05T09:17:11.619Z,6.11
2018-12-05T09:19:42.320Z,6.23
2018-12-05T09:22:13.390Z,6.16
2018-12-05T09:24:44.282Z,6.30
2018-12-05T09:27:14.656Z,6.34
2018-12-05T09:29:45.217Z,6.21
2018-12-05T09:32:16.468Z,6.28
2018-12-05T09:34:47.424Z,6.29
2018-12-05T09:37:18.714Z,6.65
2018-12-05T09:39:53.169Z,6.63
2018-12-05T09:42:25.194Z,6.68
2018-12-05T09:44:56.129Z,6.86
2018-12-05T09:47:26.820Z,6.82
2018-12-05T09:49:57.987Z,6.59
2018-12-05T09:52:28.873Z,6.49
2018-12-05T09:55:01.368Z,6.58
2018-12-05T09:57:34.276Z,6.51
2018-12-05T10:00:08.744Z,6.46
2018-12-05T10:02:39.618Z,6.79
2018-12-05T10:05:10.935Z,6.99
2018-12-05T10:07:42.008Z,8.82
2018-12-05T10:10:13.502Z,10.93
2018-12-05T10:12:46.408Z,11.92
2018-12-05T10:15:25.560Z,11.47
2018-12-05T10:18:05.102Z,12.07
2018-12-05T10:20:55.949Z,11.28
2018-12-05T10:23:27.315Z,11.01
2018-12-05T10:25:58.194Z,11.57
2018-12-05T10:28:29.322Z,11.58
2018-12-05T10:31:02.352Z,12.26
2018-12-05T10:33:33.572Z,11.55
2018-12-05T10:36:04.419Z,11.68
2018-12-05T10:38:35.051Z,12.45
2018-12-05T10:41:06.343Z,10.18
2018-12-05T10:43:37.026Z,9.48
2018-12-05T10:46:08.004Z,8.99
2018-12-05T10:48:38.686Z,8.55
2018-12-05T10:51:09.586Z,8.30
2018-12-05T10:53:39.969Z,8.30
2018-12-05T10:56:10.528Z,8.06
2018-12-05T10:58:41.155Z,8.42
2018-12-05T11:01:19.599Z,8.31
2018-12-05T11:03:51.263Z,8.37
2018-12-05T11:06:29.848Z,8.87
2018-12-05T11:09:07.158Z,8.39
2018-12-05T11:11:44.783Z,8.35
2018-12-05T11:14:22.861Z,8.49
2018-12-05T11:16:58.695Z,8.47
2018-12-05T11:19:34.788Z,8.34
2018-12-05T11:22:14.635Z,8.14
2018-12-05T11:24:49.024Z,8.47
2018-12-05T11:27:20.664Z,8.63
2018-12-05T11:29:51.658Z,8.64
2018-12-05T11:32:22.704Z,8.49
2018-12-05T11:34:53.572Z,8.44
2018-12-05T11:37:24.750Z,8.91
2018-12-05T11:40:00.420Z,8.75
2018-12-05T11:42:31.087Z,9.05
2018-12-05T11:45:02.604Z,8.72
2018-12-05T11:47:34.551Z,9.11
2018-12-05T11:50:10.559Z,8.28
2018-12-05T11:52:41.571Z,9.20
2018-12-05T11:55:12.373Z,9.81
2018-12-05T11:57:54.878Z,10.00
2018-12-05T12:00:28.017Z,10.74
2018-12-05T12:03:08.267Z,11.97
2018-12-05T12:05:40.735Z,11.41
2018-12-05T12:08:12.163Z,10.48
2018-12-05T12:10:44.616Z,11.37
2018-12-05T12:13:15.773Z,10.89
2018-12-05T12:15:48.798Z,10.92
2018-12-05T12:18:20.867Z,12.36
2018-12-05T12:20:53.911Z,14.23
2018-12-05T12:23:24.919Z,13.16
2018-12-05T12:25:58.235Z,11.84
2018-12-05T12:28:28.803Z,10.83
2018-12-05T12:30:59.931Z,11.52
2018-12-05T12:33:30.943Z,11.02
2018-12-05T12:36:06.672Z,11.55
2018-12-05T12:38:37.307Z,12.33
2018-12-05T12:41:07.976Z,13.34
2018-12-05T12:43:39.052Z,11.49
2018-12-05T12:46:09.771Z,12.20
2018-12-05T12:48:40.481Z,11.64
2018-12-05T12:51:11.082Z,11.46
2018-12-05T12:53:42.190Z,11.92
2018-12-05T12:56:12.877Z,12.92
2018-12-05T12:58:43.657Z,14.53
2018-12-05T13:01:14.305Z,14.02
2018-12-05T13:03:44.910Z,13.03
2018-12-05T13:06:15.505Z,13.20
2018-12-05T13:08:46.151Z,14.64
2018-12-05T13:11:16.709Z,13.31
2018-12-05T13:13:49.514Z,13.46
2018-12-05T13:16:20.361Z,13.45
2018-12-05T13:18:53.178Z,14.47
2018-12-05T13:21:25.002Z,13.28
2018-12-05T13:23:57.239Z,12.69
2018-12-05T13:26:30.219Z,12.84
2018-12-05T13:29:03.053Z,11.83
2018-12-05T13:31:34.195Z,11.49
2018-12-05T13:34:07.249Z,12.30
2018-12-05T13:36:40.319Z,11.93
2018-12-05T13:39:11.168Z,13.04
2018-12-05T13:41:42.348Z,12.28
2018-12-05T13:44:12.888Z,10.57
2018-12-05T13:46:43.335Z,9.75
2018-12-05T13:49:14.583Z,9.28
2018-12-05T13:51:45.159Z,9.07
2018-12-05T13:54:15.702Z,9.29
2018-12-05T13:56:46.931Z,9.44
2018-12-05T13:59:17.593Z,9.38
2018-12-05T14:01:51.318Z,10.03
2018-12-05T14:04:24.435Z,10.98
2018-12-05T14:06:55.452Z,11.04
2018-12-05T14:09:28.553Z,10.30
2018-12-05T14:11:59.476Z,10.83
2018-12-05T14:14:31.259Z,10.78
2018-12-05T14:17:04.504Z,10.60
2018-12-05T14:19:42.270Z,10.82
2018-12-05T14:22:13.848Z,11.02
2018-12-05T14:24:46.341Z,11.32
2018-12-05T14:27:17.490Z,11.53
2018-12-05T14:29:48.501Z,11.61
2018-12-05T14:32:21.365Z,11.40
2018-12-05T14:34:52.039Z,10.04
2018-12-05T14:37:25.559Z,9.08
2018-12-05T14:39:56.455Z,8.85
2018-12-05T14:42:27.118Z,8.17
2018-12-05T14:44:57.905Z,8.89
2018-12-05T14:47:28.543Z,8.69
2018-12-05T14:49:59.204Z,8.75
2018-12-05T14:52:29.743Z,8.68
2018-12-05T14:55:00.436Z,8.78
2018-12-05T14:57:31.101Z,9.19
2018-12-05T15:00:02.630Z,9.70
2018-12-05T15:02:35.536Z,9.94
2018-12-05T15:05:08.793Z,10.14
2018-12-05T15:07:42.592Z,10.10
2018-12-05T15:10:19.284Z,10.16
2018-12-05T15:12:50.948Z,10.19
2018-12-05T15:15:29.501Z,10.11
2018-12-05T15:18:15.888Z,9.67
2018-12-05T15:20:46.543Z,9.28
2018-12-05T15:23:19.721Z,9.30
2018-12-05T15:25:53.717Z,9.35
2018-12-05T15:28:24.250Z,9.44
2018-12-05T15:30:54.552Z,9.30
2018-12-05T15:33:25.231Z,9.44
2018-12-05T15:35:55.804Z,9.59
2018-12-05T15:38:26.308Z,9.71
2018-12-05T15:40:56.896Z,9.79
2018-12-05T15:43:27.215Z,9.70
2018-12-05T15:45:57.523Z,9.60
2018-12-05T15:48:28.274Z,9.65
2018-12-05T15:50:58.624Z,9.84
2018-12-05T15:53:29.189Z,10.06
2018-12-05T15:55:59.811Z,10.21
2018-12-05T15:58:30.747Z,10.26
2018-12-05T16:01:01.399Z,10.25
2018-12-05T16:03:31.730Z,10.29
2018-12-05T16:06:02.362Z,10.32
2018-12-05T16:08:32.963Z,10.32
2018-12-05T16:11:03.299Z,10.30
2018-12-05T16:13:34.232Z,10.21
2018-12-05T16:16:05.218Z,10.19
2018-12-05T16:18:37.907Z,9.79
2018-12-05T16:21:08.918Z,9.31
2018-12-05T16:23:39.796Z,9.24
2018-12-05T16:26:13.057Z,6.98
2018-12-05T16:28:43.823Z,5.39
2018-12-05T16:31:14.966Z,4.76
2018-12-05T16:33:48.537Z,4.22
2018-12-05T16:36:19.137Z,3.91
2018-12-05T16:38:49.970Z,3.78
2018-12-05T16:41:21.550Z,3.65
2018-12-05T16:43:53.891Z,3.57
2018-12-05T16:46:25.267Z,3.56
2018-12-05T16:48:58.199Z,3.57
2018-12-05T16:51:28.936Z,3.80
2018-12-05T16:53:59.558Z,3.96
2018-12-05T16:56:30.231Z,3.88
2018-12-05T16:59:01.346Z,4.43
2018-12-05T17:01:32.749Z,5.50
2018-12-05T17:04:04.611Z,6.07
2018-12-05T17:06:38.043Z,6.45
2018-12-05T17:09:11.292Z,5.78
2018-12-05T17:11:42.509Z,3.59
2018-12-05T17:14:15.246Z,3.37
2018-12-05T17:16:46.335Z,3.28
2018-12-05T17:19:17.156Z,3.46
2018-12-05T17:21:50.445Z,3.76
2018-12-05T17:24:21.002Z,3.87
2018-12-05T17:26:51.643Z,3.98
2018-12-05T17:29:22.478Z,4.11
2018-12-05T17:31:53.167Z,4.27
2018-12-05T17:34:23.885Z,4.56
2018-12-05T17:36:57.012Z,3.66
2018-12-05T17:39:28.227Z,3.20
2018-12-05T17:42:02.834Z,3.37
2018-12-05T17:44:34.547Z,3.71
2018-12-05T17:47:06.668Z,3.47
2018-12-05T17:49:37.230Z,2.29
2018-12-05T17:52:10.406Z,3.13
2018-12-05T17:54:43.315Z,3.16
2018-12-05T17:57:15.250Z,3.14
2018-12-05T17:59:46.105Z,3.14
2018-12-05T18:02:16.876Z,3.11
2018-12-05T18:04:47.423Z,2.99
2018-12-05T18:07:18.102Z,2.74
2018-12-05T18:09:51.607Z,2.79
2018-12-05T18:12:24.457Z,2.58
2018-12-05T18:14:55.478Z,2.66
2018-12-05T18:17:28.465Z,2.91
2018-12-05T18:19:59.587Z,3.06
2018-12-05T18:22:31.078Z,3.58
2018-12-05T18:25:03.626Z,4.49
2018-12-05T18:27:37.111Z,4.89
2018-12-05T18:30:09.711Z,4.52
2018-12-05T18:32:41.535Z,4.70
2018-12-05T18:35:12.755Z,5.34
2018-12-05T18:37:58.963Z,5.78
2018-12-05T18:40:39.051Z,5.52
2018-12-05T18:43:11.465Z,4.86
2018-12-05T18:45:42.036Z,4.74
2018-12-05T18:48:12.706Z,4.21
2018-12-05T18:50:43.332Z,3.06
2018-12-05T18:53:14.479Z,4.27
2018-12-05T18:55:45.060Z,4.27
2018-12-05T18:58:15.602Z,3.87
2018-12-05T19:00:46.423Z,4.67
2018-12-05T19:03:17.467Z,5.24
2018-12-05T19:05:51.524Z,5.59
2018-12-05T19:08:24.610Z,5.94
2018-12-05T19:10:55.656Z,6.10
2018-12-05T19:13:28.793Z,6.26
2018-12-05T19:15:59.629Z,6.42
2018-12-05T19:18:30.855Z,6.21
2018-12-05T19:21:03.653Z,6.22
2018-12-05T19:23:34.771Z,6.33
2018-12-05T19:26:08.137Z,6.12
2018-12-05T19:28:38.719Z,6.01
2018-12-05T19:31:09.432Z,6.24
2018-12-05T19:33:39.995Z,6.46
2018-12-05T19:36:10.650Z,5.95
2018-12-05T19:38:42.939Z,5.85
2018-12-05T19:41:14.741Z,5.73
2018-12-05T19:43:51.107Z,5.84
2018-12-05T19:46:22.830Z,6.02
2018-12-05T19:48:55.790Z,5.98
2018-12-05T19:51:29.107Z,5.44
2018-12-05T19:54:14.047Z,4.45
2018-12-05T19:56:46.153Z,4.09
2018-12-05T19:59:16.757Z,4.48
2018-12-05T20:01:47.625Z,3.85
2018-12-05T20:04:18.391Z,4.15
2018-12-05T20:06:49.078Z,4.54
2018-12-05T20:09:21.683Z,4.24
2018-12-05T20:11:55.001Z,4.77
2018-12-05T20:14:29.546Z,5.35
2018-12-05T20:17:04.462Z,4.85
2018-12-05T20:19:35.165Z,3.54
2018-12-05T20:22:08.009Z,4.87
2018-12-05T20:24:39.056Z,5.01
2018-12-05T20:27:09.690Z,5.15
2018-12-05T20:29:43.103Z,4.82
2018-12-05T20:32:16.180Z,4.98
2018-12-05T20:34:49.052Z,5.12
2018-12-05T20:37:20.369Z,5.33
2018-12-05T20:39:51.237Z,4.63
2018-12-05T20:42:22.173Z,4.75
2018-12-05T20:44:55.371Z,5.03
2018-12-05T20:47:26.258Z,5.36
2018-12-05T20:49:57.288Z,4.06
2018-12-05T20:52:30.325Z,4.23
2018-12-05T20:55:01.190Z,4.79
2018-12-05T20:57:31.803Z,5.02
2018-12-05T21:00:02.434Z,4.66
2018-12-05T21:02:33.094Z,4.92
2018-12-05T21:05:05.359Z,4.75
2018-12-05T21:07:37.362Z,4.42
2018-12-05T21:10:08.246Z,3.83
2018-12-05T21:12:40.059Z,3.98
2018-12-05T21:15:13.238Z,4.18
2018-12-05T21:17:45.267Z,4.44
2018-12-05T21:20:17.547Z,4.23
2018-12-05T21:23:00.559Z,4.07
2018-12-05T21:25:33.767Z,4.01
2018-12-05T21:28:04.965Z,3.32
2018-12-05T21:30:44.347Z,3.74
2018-12-05T21:33:15.287Z,4.17
2018-12-05T21:35:57.406Z,4.04
2018-12-05T21:38:28.318Z,3.50
2018-12-05T21:40:59.449Z,3.45
2018-12-05T21:43:31.254Z,3.77
2018-12-05T21:46:03.498Z,4.02
2018-12-05T21:48:34.259Z,3.82
2018-12-05T21:51:07.459Z,3.50
2018-12-05T21:53:43.217Z,3.41
2018-12-05T21:56:14.831Z,3.45
2018-12-05T21:58:47.561Z,3.60
2018-12-05T22:01:18.387Z,3.49
2018-12-05T22:03:49.464Z,3.50
2018-12-05T22:06:20.478Z,3.47
2018-12-05T22:08:51.294Z,3.04
2018-12-05T22:11:21.991Z,3.07
2018-12-05T22:13:52.553Z,3.10
2018-12-05T22:16:23.535Z,3.09
2018-12-05T22:18:54.697Z,3.49
2018-12-05T22:21:25.232Z,2.78
2018-12-05T22:23:55.961Z,2.42
2018-12-05T22:26:26.904Z,1.77
2018-12-05T22:28:57.682Z,2.53
2018-12-05T22:31:28.349Z,3.11
2018-12-05T22:33:59.004Z,3.34
2018-12-05T22:36:30.217Z,3.24
2018-12-05T22:39:03.029Z,3.26
2018-12-05T22:41:34.645Z,3.32
2018-12-05T22:44:05.641Z,2.91
2018-12-05T22:46:40.272Z,3.26
2018-12-05T22:49:11.515Z,3.52
2018-12-05T22:51:44.635Z,3.55
2018-12-05T22:54:16.340Z,3.56
2018-12-05T22:57:00.332Z,3.09
2018-12-05T22:59:31.399Z,1.88
2018-12-05T23:02:02.694Z,2.47
2018-12-05T23:04:34.480Z,2.27
2018-12-05T23:07:07.240Z,2.33
2018-12-05T23:09:37.849Z,2.35
2018-12-05T23:12:08.623Z,2.46
2018-12-05T23:14:39.438Z,2.52
2018-12-05T23:17:10.105Z,2.41
2018-12-05T23:19:40.734Z,1.61
2018-12-05T23:22:12.206Z,1.70
2018-12-05T23:24:42.755Z,1.60
2018-12-05T23:27:13.464Z,1.71
2018-12-05T23:29:44.307Z,2.02
2018-12-05T23:32:14.878Z,1.51
2018-12-05T23:34:45.591Z,0.94
2018-12-05T23:37:16.404Z,1.17
2018-12-05T23:39:46.925Z,1.52
2018-12-05T23:42:17.473Z,1.92
2018-12-05T23:44:48.007Z,1.97
2018-12-05T23:47:18.570Z,1.98
2018-12-05T23:49:51.632Z,2.00
2018-12-05T23:52:25.003Z,2.11
2018-12-05T23:54:55.879Z,2.31
2018-12-05T23:57:28.974Z,2.30
2018-12-05T23:59:59.887Z,1.67
